sensor_id;sensor_type;location;lat;lon;timestamp;P1;durP1;ratioP1;P2;durP2;ratioP2
817;SDS011;391;51.052;6.954;2022-08-21T00:01:02;7.30;;;6.70;;
817;SDS011;391;51.052;6.954;2022-08-21T00:03:09;10.90;;;9.77;;
817;SDS011;391;51.052;6.954;2022-08-21T00:05:15;15.30;;;13.90;;
817;SDS011;391;51.052;6.954;2022-08-21T00:07:19;33.27;;;30.13;;
817;SDS011;391;51.052;6.954;2022-08-21T00:09:26;16.70;;;15.00;;
817;SDS011;391;51.052;6.954;2022-08-21T00:11:29;14.70;;;13.30;;
817;SDS011;391;51.052;6.954;2022-08-21T00:13:33;13.30;;;12.00;;
817;SDS011;391;51.052;6.954;2022-08-21T00:15:38;14.93;;;13.53;;
817;SDS011;391;51.052;6.954;2022-08-21T00:17:43;10.97;;;9.90;;
817;SDS011;391;51.052;6.954;2022-08-21T00:19:47;9.37;;;8.50;;
817;SDS011;391;51.052;6.954;2022-08-21T00:21:52;9.10;;;8.20;;
817;SDS011;391;51.052;6.954;2022-08-21T00:23:57;9.80;;;8.23;;
817;SDS011;391;51.052;6.954;2022-08-21T00:26:00;9.17;;;8.30;;
817;SDS011;391;51.052;6.954;2022-08-21T00:28:04;9.10;;;7.50;;
817;SDS011;391;51.052;6.954;2022-08-21T00:30:08;8.53;;;7.73;;
817;SDS011;391;51.052;6.954;2022-08-21T00:32:24;8.97;;;8.17;;
817;SDS011;391;51.052;6.954;2022-08-21T00:34:29;7.90;;;7.20;;
817;SDS011;391;51.052;6.954;2022-08-21T00:36:33;8.90;;;8.03;;
817;SDS011;391;51.052;6.954;2022-08-21T00:38:38;8.40;;;7.60;;
817;SDS011;391;51.052;6.954;2022-08-21T00:40:42;10.27;;;7.63;;
817;SDS011;391;51.052;6.954;2022-08-21T00:42:47;8.30;;;7.13;;
817;SDS011;391;51.052;6.954;2022-08-21T00:44:54;7.03;;;6.33;;
817;SDS011;391;51.052;6.954;2022-08-21T00:46:58;9.20;;;7.87;;
817;SDS011;391;51.052;6.954;2022-08-21T00:49:02;8.73;;;7.83;;
817;SDS011;391;51.052;6.954;2022-08-21T00:51:07;8.20;;;7.40;;
817;SDS011;391;51.052;6.954;2022-08-21T00:53:12;8.20;;;7.30;;
817;SDS011;391;51.052;6.954;2022-08-21T00:55:19;8.87;;;8.07;;
817;SDS011;391;51.052;6.954;2022-08-21T00:57:26;8.83;;;8.03;;
817;SDS011;391;51.052;6.954;2022-08-21T00:59:35;12.67;;;7.17;;
817;SDS011;391;51.052;6.954;2022-08-21T01:01:41;7.70;;;6.83;;
817;SDS011;391;51.052;6.954;2022-08-21T01:03:45;8.10;;;7.40;;
817;SDS011;391;51.052;6.954;2022-08-21T01:05:51;7.60;;;6.90;;
817;SDS011;391;51.052;6.954;2022-08-21T01:07:55;8.30;;;7.30;;
817;SDS011;391;51.052;6.954;2022-08-21T01:09:59;6.90;;;6.40;;
817;SDS011;391;51.052;6.954;2022-08-21T01:12:04;7.77;;;6.33;;
817;SDS011;391;51.052;6.954;2022-08-21T01:14:09;7.80;;;7.10;;
817;SDS011;391;51.052;6.954;2022-08-21T01:16:15;8.57;;;7.83;;
817;SDS011;391;51.052;6.954;2022-08-21T01:18:21;7.80;;;7.00;;
817;SDS011;391;51.052;6.954;2022-08-21T01:20:25;7.27;;;6.57;;
817;SDS011;391;51.052;6.954;2022-08-21T01:22:35;8.80;;;7.27;;
817;SDS011;391;51.052;6.954;2022-08-21T01:24:38;8.63;;;7.90;;
817;SDS011;391;51.052;6.954;2022-08-21T01:26:43;8.30;;;7.17;;
817;SDS011;391;51.052;6.954;2022-08-21T01:28:49;7.20;;;6.60;;
817;SDS011;391;51.052;6.954;2022-08-21T01:30:57;8.13;;;7.43;;
817;SDS011;391;51.052;6.954;2022-08-21T01:33:04;7.80;;;6.90;;
817;SDS011;391;51.052;6.954;2022-08-21T01:35:07;8.47;;;7.67;;
817;SDS011;391;51.052;6.954;2022-08-21T01:37:13;8.83;;;8.00;;
817;SDS011;391;51.052;6.954;2022-08-21T01:39:20;9.33;;;8.40;;
817;SDS011;391;51.052;6.954;2022-08-21T01:41:23;8.13;;;7.40;;
817;SDS011;391;51.052;6.954;2022-08-21T01:43:27;9.57;;;8.70;;
817;SDS011;391;51.052;6.954;2022-08-21T01:45:40;8.97;;;7.50;;
817;SDS011;391;51.052;6.954;2022-08-21T01:47:44;8.60;;;7.80;;
817;SDS011;391;51.052;6.954;2022-08-21T01:49:47;8.87;;;7.63;;
817;SDS011;391;51.052;6.954;2022-08-21T01:51:51;8.33;;;7.63;;
817;SDS011;391;51.052;6.954;2022-08-21T01:53:57;7.47;;;6.73;;
817;SDS011;391;51.052;6.954;2022-08-21T01:56:03;8.87;;;8.00;;
817;SDS011;391;51.052;6.954;2022-08-21T01:58:13;8.77;;;7.97;;
817;SDS011;391;51.052;6.954;2022-08-21T02:00:18;8.67;;;7.60;;
817;SDS011;391;51.052;6.954;2022-08-21T02:02:24;10.33;;;9.33;;
817;SDS011;391;51.052;6.954;2022-08-21T02:04:28;10.07;;;8.87;;
817;SDS011;391;51.052;6.954;2022-08-21T02:06:32;11.53;;;9.90;;
817;SDS011;391;51.052;6.954;2022-08-21T02:08:36;11.50;;;9.10;;
817;SDS011;391;51.052;6.954;2022-08-21T02:10:40;10.83;;;8.93;;
817;SDS011;391;51.052;6.954;2022-08-21T02:12:51;9.30;;;8.33;;
817;SDS011;391;51.052;6.954;2022-08-21T02:14:54;8.60;;;7.87;;
817;SDS011;391;51.052;6.954;2022-08-21T02:16:58;9.43;;;8.53;;
817;SDS011;391;51.052;6.954;2022-08-21T02:19:11;10.03;;;9.13;;
817;SDS011;391;51.052;6.954;2022-08-21T02:21:17;9.23;;;8.43;;
817;SDS011;391;51.052;6.954;2022-08-21T02:23:20;11.63;;;8.00;;
817;SDS011;391;51.052;6.954;2022-08-21T02:25:28;9.30;;;8.50;;
817;SDS011;391;51.052;6.954;2022-08-21T02:27:37;11.97;;;9.60;;
817;SDS011;391;51.052;6.954;2022-08-21T02:29:43;9.73;;;8.73;;
817;SDS011;391;51.052;6.954;2022-08-21T02:31:47;15.07;;;11.57;;
817;SDS011;391;51.052;6.954;2022-08-21T02:33:50;11.00;;;9.90;;
817;SDS011;391;51.052;6.954;2022-08-21T02:35:54;10.20;;;9.20;;
817;SDS011;391;51.052;6.954;2022-08-21T02:38:00;9.23;;;8.33;;
817;SDS011;391;51.052;6.954;2022-08-21T02:40:06;10.20;;;9.30;;
817;SDS011;391;51.052;6.954;2022-08-21T02:42:13;11.10;;;10.20;;
817;SDS011;391;51.052;6.954;2022-08-21T02:44:16;11.17;;;9.27;;
817;SDS011;391;51.052;6.954;2022-08-21T02:46:21;10.03;;;9.03;;
817;SDS011;391;51.052;6.954;2022-08-21T02:48:29;11.87;;;9.90;;
817;SDS011;391;51.052;6.954;2022-08-21T02:50:35;8.40;;;7.60;;
817;SDS011;391;51.052;6.954;2022-08-21T02:52:39;9.97;;;7.47;;
817;SDS011;391;51.052;6.954;2022-08-21T02:54:43;10.20;;;8.83;;
817;SDS011;391;51.052;6.954;2022-08-21T02:56:46;9.73;;;8.67;;
817;SDS011;391;51.052;6.954;2022-08-21T02:58:50;8.40;;;7.70;;
817;SDS011;391;51.052;6.954;2022-08-21T03:00:56;11.77;;;9.03;;
817;SDS011;391;51.052;6.954;2022-08-21T03:03:01;8.57;;;7.73;;
817;SDS011;391;51.052;6.954;2022-08-21T03:05:05;9.73;;;8.43;;
817;SDS011;391;51.052;6.954;2022-08-21T03:07:11;11.30;;;9.77;;
817;SDS011;391;51.052;6.954;2022-08-21T03:09:14;9.77;;;8.50;;
817;SDS011;391;51.052;6.954;2022-08-21T03:11:18;12.63;;;9.30;;
817;SDS011;391;51.052;6.954;2022-08-21T03:13:22;8.77;;;8.00;;
817;SDS011;391;51.052;6.954;2022-08-21T03:15:26;9.57;;;8.67;;
817;SDS011;391;51.052;6.954;2022-08-21T03:17:30;8.97;;;8.17;;
817;SDS011;391;51.052;6.954;2022-08-21T03:19:34;9.70;;;8.77;;
817;SDS011;391;51.052;6.954;2022-08-21T03:21:38;11.07;;;9.37;;
817;SDS011;391;51.052;6.954;2022-08-21T03:23:41;9.13;;;8.23;;
817;SDS011;391;51.052;6.954;2022-08-21T03:25:45;10.40;;;8.87;;
817;SDS011;391;51.052;6.954;2022-08-21T03:27:51;10.47;;;8.20;;
817;SDS011;391;51.052;6.954;2022-08-21T03:30:00;11.03;;;9.77;;
817;SDS011;391;51.052;6.954;2022-08-21T03:32:04;10.20;;;9.20;;
817;SDS011;391;51.052;6.954;2022-08-21T03:34:11;10.03;;;8.70;;
817;SDS011;391;51.052;6.954;2022-08-21T03:36:15;11.07;;;9.30;;
817;SDS011;391;51.052;6.954;2022-08-21T03:38:19;10.70;;;9.80;;
817;SDS011;391;51.052;6.954;2022-08-21T03:40:27;9.87;;;8.87;;
817;SDS011;391;51.052;6.954;2022-08-21T03:42:31;12.87;;;10.30;;
817;SDS011;391;51.052;6.954;2022-08-21T03:44:34;10.27;;;9.27;;
817;SDS011;391;51.052;6.954;2022-08-21T03:46:38;11.70;;;10.60;;
817;SDS011;391;51.052;6.954;2022-08-21T03:48:42;10.27;;;8.97;;
817;SDS011;391;51.052;6.954;2022-08-21T03:50:46;8.73;;;7.83;;
817;SDS011;391;51.052;6.954;2022-08-21T03:52:52;10.17;;;9.13;;
817;SDS011;391;51.052;6.954;2022-08-21T03:54:56;10.53;;;8.40;;
817;SDS011;391;51.052;6.954;2022-08-21T03:57:00;10.37;;;9.27;;
817;SDS011;391;51.052;6.954;2022-08-21T03:59:04;10.20;;;9.10;;
817;SDS011;391;51.052;6.954;2022-08-21T04:01:07;8.70;;;7.90;;
817;SDS011;391;51.052;6.954;2022-08-21T04:03:11;10.83;;;9.70;;
817;SDS011;391;51.052;6.954;2022-08-21T04:05:16;14.97;;;9.90;;
817;SDS011;391;51.052;6.954;2022-08-21T04:07:29;9.20;;;8.30;;
817;SDS011;391;51.052;6.954;2022-08-21T04:09:33;8.97;;;7.83;;
817;SDS011;391;51.052;6.954;2022-08-21T04:11:37;9.80;;;8.83;;
817;SDS011;391;51.052;6.954;2022-08-21T04:13:40;9.60;;;8.10;;
817;SDS011;391;51.052;6.954;2022-08-21T04:15:46;9.37;;;8.47;;
817;SDS011;391;51.052;6.954;2022-08-21T04:17:53;11.80;;;9.17;;
817;SDS011;391;51.052;6.954;2022-08-21T04:19:57;10.63;;;9.63;;
817;SDS011;391;51.052;6.954;2022-08-21T04:22:01;9.43;;;8.53;;
817;SDS011;391;51.052;6.954;2022-08-21T04:24:04;9.93;;;9.03;;
817;SDS011;391;51.052;6.954;2022-08-21T04:26:10;10.07;;;8.33;;
817;SDS011;391;51.052;6.954;2022-08-21T04:28:14;10.53;;;8.30;;
817;SDS011;391;51.052;6.954;2022-08-21T04:30:18;10.67;;;8.40;;
817;SDS011;391;51.052;6.954;2022-08-21T04:32:29;10.07;;;8.50;;
817;SDS011;391;51.052;6.954;2022-08-21T04:34:33;13.80;;;10.00;;
817;SDS011;391;51.052;6.954;2022-08-21T04:36:36;8.53;;;7.73;;
817;SDS011;391;51.052;6.954;2022-08-21T04:38:39;8.87;;;8.07;;
817;SDS011;391;51.052;6.954;2022-08-21T04:40:45;10.23;;;8.83;;
817;SDS011;391;51.052;6.954;2022-08-21T04:42:51;13.33;;;8.80;;
817;SDS011;391;51.052;6.954;2022-08-21T04:44:56;9.33;;;8.23;;
817;SDS011;391;51.052;6.954;2022-08-21T04:46:59;7.37;;;6.77;;
817;SDS011;391;51.052;6.954;2022-08-21T04:49:03;10.00;;;8.20;;
817;SDS011;391;51.052;6.954;2022-08-21T04:51:07;8.70;;;7.07;;
817;SDS011;391;51.052;6.954;2022-08-21T04:53:16;7.63;;;6.93;;
817;SDS011;391;51.052;6.954;2022-08-21T04:55:23;8.20;;;7.40;;
817;SDS011;391;51.052;6.954;2022-08-21T04:57:29;7.63;;;7.03;;
817;SDS011;391;51.052;6.954;2022-08-21T04:59:51;10.10;;;7.87;;
817;SDS011;391;51.052;6.954;2022-08-21T05:01:55;10.07;;;7.90;;
817;SDS011;391;51.052;6.954;2022-08-21T05:03:59;7.37;;;6.73;;
817;SDS011;391;51.052;6.954;2022-08-21T05:06:06;7.33;;;6.63;;
817;SDS011;391;51.052;6.954;2022-08-21T05:08:14;7.20;;;6.60;;
817;SDS011;391;51.052;6.954;2022-08-21T05:10:20;6.97;;;6.37;;
817;SDS011;391;51.052;6.954;2022-08-21T05:12:24;7.13;;;5.83;;
817;SDS011;391;51.052;6.954;2022-08-21T05:14:28;6.20;;;5.30;;
817;SDS011;391;51.052;6.954;2022-08-21T05:16:33;7.57;;;6.77;;
817;SDS011;391;51.052;6.954;2022-08-21T05:18:38;6.80;;;6.20;;
817;SDS011;391;51.052;6.954;2022-08-21T05:20:42;8.90;;;8.10;;
817;SDS011;391;51.052;6.954;2022-08-21T05:22:46;9.83;;;8.47;;
817;SDS011;391;51.052;6.954;2022-08-21T05:24:50;7.70;;;6.90;;
817;SDS011;391;51.052;6.954;2022-08-21T05:26:54;8.57;;;7.13;;
817;SDS011;391;51.052;6.954;2022-08-21T05:28:58;9.70;;;7.40;;
817;SDS011;391;51.052;6.954;2022-08-21T05:31:03;8.03;;;7.23;;
817;SDS011;391;51.052;6.954;2022-08-21T05:33:08;10.00;;;8.90;;
817;SDS011;391;51.052;6.954;2022-08-21T05:35:11;10.00;;;9.00;;
817;SDS011;391;51.052;6.954;2022-08-21T05:37:15;8.67;;;7.87;;
817;SDS011;391;51.052;6.954;2022-08-21T05:39:19;10.40;;;8.43;;
817;SDS011;391;51.052;6.954;2022-08-21T05:41:22;9.83;;;8.60;;
817;SDS011;391;51.052;6.954;2022-08-21T05:43:26;9.37;;;8.47;;
817;SDS011;391;51.052;6.954;2022-08-21T05:45:30;8.80;;;8.00;;
817;SDS011;391;51.052;6.954;2022-08-21T05:47:45;9.33;;;8.33;;
817;SDS011;391;51.052;6.954;2022-08-21T05:49:50;9.90;;;8.97;;
817;SDS011;391;51.052;6.954;2022-08-21T05:51:53;10.03;;;9.10;;
817;SDS011;391;51.052;6.954;2022-08-21T05:53:57;13.53;;;12.13;;
817;SDS011;391;51.052;6.954;2022-08-21T05:56:00;10.57;;;9.47;;
817;SDS011;391;51.052;6.954;2022-08-21T05:58:05;10.30;;;9.23;;
817;SDS011;391;51.052;6.954;2022-08-21T06:00:09;9.60;;;8.70;;
817;SDS011;391;51.052;6.954;2022-08-21T06:02:14;8.50;;;7.80;;
817;SDS011;391;51.052;6.954;2022-08-21T06:04:20;10.57;;;8.50;;
817;SDS011;391;51.052;6.954;2022-08-21T06:06:25;10.70;;;9.67;;
817;SDS011;391;51.052;6.954;2022-08-21T06:08:28;10.30;;;9.27;;
817;SDS011;391;51.052;6.954;2022-08-21T06:10:32;13.97;;;12.10;;
817;SDS011;391;51.052;6.954;2022-08-21T06:12:35;9.83;;;8.83;;
817;SDS011;391;51.052;6.954;2022-08-21T06:14:43;10.17;;;9.17;;
817;SDS011;391;51.052;6.954;2022-08-21T06:16:46;10.90;;;9.80;;
817;SDS011;391;51.052;6.954;2022-08-21T06:18:50;8.87;;;7.93;;
817;SDS011;391;51.052;6.954;2022-08-21T06:20:53;13.00;;;9.40;;
817;SDS011;391;51.052;6.954;2022-08-21T06:23:00;9.60;;;8.70;;
817;SDS011;391;51.052;6.954;2022-08-21T06:25:04;12.50;;;9.20;;
817;SDS011;391;51.052;6.954;2022-08-21T06:27:08;11.70;;;10.47;;
817;SDS011;391;51.052;6.954;2022-08-21T06:29:12;11.20;;;10.20;;
817;SDS011;391;51.052;6.954;2022-08-21T06:31:19;10.63;;;9.53;;
817;SDS011;391;51.052;6.954;2022-08-21T06:33:25;10.27;;;9.27;;
817;SDS011;391;51.052;6.954;2022-08-21T06:35:33;11.03;;;10.13;;
817;SDS011;391;51.052;6.954;2022-08-21T06:37:42;11.37;;;10.20;;
817;SDS011;391;51.052;6.954;2022-08-21T06:39:47;11.10;;;10.00;;
817;SDS011;391;51.052;6.954;2022-08-21T06:41:51;13.27;;;10.80;;
817;SDS011;391;51.052;6.954;2022-08-21T06:44:02;10.30;;;9.30;;
817;SDS011;391;51.052;6.954;2022-08-21T06:46:06;10.23;;;9.00;;
817;SDS011;391;51.052;6.954;2022-08-21T06:48:11;12.43;;;10.90;;
817;SDS011;391;51.052;6.954;2022-08-21T06:50:20;11.87;;;10.37;;
817;SDS011;391;51.052;6.954;2022-08-21T06:52:23;13.50;;;10.93;;
817;SDS011;391;51.052;6.954;2022-08-21T06:54:27;12.00;;;10.80;;
817;SDS011;391;51.052;6.954;2022-08-21T06:56:32;12.17;;;11.07;;
817;SDS011;391;51.052;6.954;2022-08-21T06:58:37;12.20;;;11.00;;
817;SDS011;391;51.052;6.954;2022-08-21T07:00:41;10.70;;;8.43;;
817;SDS011;391;51.052;6.954;2022-08-21T07:02:46;10.47;;;9.30;;
817;SDS011;391;51.052;6.954;2022-08-21T07:04:50;8.67;;;7.50;;
817;SDS011;391;51.052;6.954;2022-08-21T07:06:54;8.93;;;8.17;;
817;SDS011;391;51.052;6.954;2022-08-21T07:08:57;7.87;;;6.30;;
817;SDS011;391;51.052;6.954;2022-08-21T07:11:01;7.73;;;6.97;;
817;SDS011;391;51.052;6.954;2022-08-21T07:13:11;9.30;;;8.37;;
817;SDS011;391;51.052;6.954;2022-08-21T07:15:15;8.80;;;7.90;;
817;SDS011;391;51.052;6.954;2022-08-21T07:17:18;9.00;;;7.43;;
817;SDS011;391;51.052;6.954;2022-08-21T07:19:22;6.50;;;6.00;;
817;SDS011;391;51.052;6.954;2022-08-21T07:21:26;7.63;;;6.93;;
817;SDS011;391;51.052;6.954;2022-08-21T07:23:30;7.40;;;6.40;;
817;SDS011;391;51.052;6.954;2022-08-21T07:25:35;7.80;;;6.40;;
817;SDS011;391;51.052;6.954;2022-08-21T07:27:39;7.40;;;6.03;;
817;SDS011;391;51.052;6.954;2022-08-21T07:29:44;5.43;;;4.93;;
817;SDS011;391;51.052;6.954;2022-08-21T07:31:47;6.93;;;6.23;;
817;SDS011;391;51.052;6.954;2022-08-21T07:33:51;6.13;;;5.33;;
817;SDS011;391;51.052;6.954;2022-08-21T07:35:55;7.73;;;4.60;;
817;SDS011;391;51.052;6.954;2022-08-21T07:37:59;4.90;;;4.50;;
817;SDS011;391;51.052;6.954;2022-08-21T07:40:03;4.83;;;4.43;;
817;SDS011;391;51.052;6.954;2022-08-21T07:42:07;6.00;;;5.00;;
817;SDS011;391;51.052;6.954;2022-08-21T07:44:12;4.33;;;3.53;;
817;SDS011;391;51.052;6.954;2022-08-21T07:46:17;6.80;;;4.10;;
817;SDS011;391;51.052;6.954;2022-08-21T07:48:20;3.60;;;3.30;;
817;SDS011;391;51.052;6.954;2022-08-21T07:50:24;11.57;;;4.47;;
817;SDS011;391;51.052;6.954;2022-08-21T07:52:28;6.67;;;3.30;;
817;SDS011;391;51.052;6.954;2022-08-21T07:54:33;3.43;;;2.90;;
817;SDS011;391;51.052;6.954;2022-08-21T07:56:36;3.60;;;2.60;;
817;SDS011;391;51.052;6.954;2022-08-21T07:58:40;4.57;;;3.37;;
817;SDS011;391;51.052;6.954;2022-08-21T08:00:43;7.17;;;3.10;;
817;SDS011;391;51.052;6.954;2022-08-21T08:02:49;3.73;;;3.17;;
817;SDS011;391;51.052;6.954;2022-08-21T08:04:57;4.47;;;2.67;;
817;SDS011;391;51.052;6.954;2022-08-21T08:07:02;5.83;;;3.20;;
817;SDS011;391;51.052;6.954;2022-08-21T08:09:06;4.10;;;3.37;;
817;SDS011;391;51.052;6.954;2022-08-21T08:11:10;5.30;;;2.73;;
817;SDS011;391;51.052;6.954;2022-08-21T08:13:16;3.73;;;3.17;;
817;SDS011;391;51.052;6.954;2022-08-21T08:15:21;4.47;;;2.70;;
817;SDS011;391;51.052;6.954;2022-08-21T08:17:26;5.13;;;2.70;;
817;SDS011;391;51.052;6.954;2022-08-21T08:19:31;6.73;;;2.90;;
817;SDS011;391;51.052;6.954;2022-08-21T08:21:35;5.03;;;2.87;;
817;SDS011;391;51.052;6.954;2022-08-21T08:23:40;6.53;;;3.20;;
817;SDS011;391;51.052;6.954;2022-08-21T08:25:46;4.60;;;2.77;;
817;SDS011;391;51.052;6.954;2022-08-21T08:27:49;3.00;;;2.80;;
817;SDS011;391;51.052;6.954;2022-08-21T08:29:53;8.13;;;2.70;;
817;SDS011;391;51.052;6.954;2022-08-21T08:31:57;6.17;;;4.30;;
817;SDS011;391;51.052;6.954;2022-08-21T08:34:01;5.70;;;3.90;;
817;SDS011;391;51.052;6.954;2022-08-21T08:36:08;6.07;;;3.47;;
817;SDS011;391;51.052;6.954;2022-08-21T08:38:16;7.80;;;3.30;;
817;SDS011;391;51.052;6.954;2022-08-21T08:40:23;7.70;;;3.30;;
817;SDS011;391;51.052;6.954;2022-08-21T08:42:35;6.53;;;3.27;;
817;SDS011;391;51.052;6.954;2022-08-21T08:44:39;2.70;;;2.47;;
817;SDS011;391;51.052;6.954;2022-08-21T08:46:44;6.13;;;2.20;;
817;SDS011;391;51.052;6.954;2022-08-21T08:48:53;3.67;;;2.07;;
817;SDS011;391;51.052;6.954;2022-08-21T08:51:04;4.63;;;2.03;;
817;SDS011;391;51.052;6.954;2022-08-21T08:53:14;3.10;;;2.40;;
817;SDS011;391;51.052;6.954;2022-08-21T08:55:23;5.33;;;2.00;;
817;SDS011;391;51.052;6.954;2022-08-21T08:57:31;8.23;;;2.97;;
817;SDS011;391;51.052;6.954;2022-08-21T08:59:38;3.50;;;2.70;;
817;SDS011;391;51.052;6.954;2022-08-21T09:01:44;5.50;;;2.70;;
817;SDS011;391;51.052;6.954;2022-08-21T09:03:48;3.57;;;2.80;;
817;SDS011;391;51.052;6.954;2022-08-21T09:05:55;3.10;;;2.13;;
817;SDS011;391;51.052;6.954;2022-08-21T09:08:12;3.27;;;1.93;;
817;SDS011;391;51.052;6.954;2022-08-21T09:10:25;6.50;;;3.10;;
817;SDS011;391;51.052;6.954;2022-08-21T09:12:38;5.30;;;2.10;;
817;SDS011;391;51.052;6.954;2022-08-21T09:14:51;4.30;;;3.13;;
817;SDS011;391;51.052;6.954;2022-08-21T09:17:02;4.00;;;3.00;;
817;SDS011;391;51.052;6.954;2022-08-21T09:19:14;6.67;;;2.37;;
817;SDS011;391;51.052;6.954;2022-08-21T09:21:28;5.60;;;2.60;;
817;SDS011;391;51.052;6.954;2022-08-21T09:23:42;2.47;;;2.20;;
817;SDS011;391;51.052;6.954;2022-08-21T09:25:55;5.67;;;1.63;;
817;SDS011;391;51.052;6.954;2022-08-21T09:28:06;5.40;;;2.80;;
817;SDS011;391;51.052;6.954;2022-08-21T09:30:10;3.80;;;3.00;;
817;SDS011;391;51.052;6.954;2022-08-21T09:32:15;5.20;;;1.90;;
817;SDS011;391;51.052;6.954;2022-08-21T09:34:24;4.10;;;1.80;;
817;SDS011;391;51.052;6.954;2022-08-21T09:36:33;2.40;;;1.43;;
817;SDS011;391;51.052;6.954;2022-08-21T09:38:51;5.63;;;2.00;;
817;SDS011;391;51.052;6.954;2022-08-21T09:40:56;3.47;;;1.73;;
817;SDS011;391;51.052;6.954;2022-08-21T09:43:03;3.57;;;1.87;;
817;SDS011;391;51.052;6.954;2022-08-21T09:45:10;4.13;;;2.10;;
817;SDS011;391;51.052;6.954;2022-08-21T09:47:18;6.13;;;2.57;;
817;SDS011;391;51.052;6.954;2022-08-21T09:49:27;6.40;;;2.77;;
817;SDS011;391;51.052;6.954;2022-08-21T09:51:32;2.60;;;2.20;;
817;SDS011;391;51.052;6.954;2022-08-21T09:53:38;4.03;;;1.83;;
817;SDS011;391;51.052;6.954;2022-08-21T09:55:51;2.33;;;1.50;;
817;SDS011;391;51.052;6.954;2022-08-21T09:58:14;3.43;;;1.80;;
817;SDS011;391;51.052;6.954;2022-08-21T10:00:24;2.03;;;1.37;;
817;SDS011;391;51.052;6.954;2022-08-21T10:02:32;5.00;;;1.63;;
817;SDS011;391;51.052;6.954;2022-08-21T10:04:37;3.87;;;1.20;;
817;SDS011;391;51.052;6.954;2022-08-21T10:06:41;3.97;;;1.77;;
817;SDS011;391;51.052;6.954;2022-08-21T10:08:44;3.17;;;1.70;;
817;SDS011;391;51.052;6.954;2022-08-21T10:10:51;2.57;;;1.20;;
817;SDS011;391;51.052;6.954;2022-08-21T10:12:58;3.60;;;1.87;;
817;SDS011;391;51.052;6.954;2022-08-21T10:15:17;3.67;;;1.73;;
817;SDS011;391;51.052;6.954;2022-08-21T10:17:26;2.50;;;1.17;;
817;SDS011;391;51.052;6.954;2022-08-21T10:19:37;3.70;;;1.70;;
817;SDS011;391;51.052;6.954;2022-08-21T10:21:52;10.37;;;1.90;;
817;SDS011;391;51.052;6.954;2022-08-21T10:24:04;2.10;;;1.40;;
817;SDS011;391;51.052;6.954;2022-08-21T10:26:35;5.43;;;1.77;;
817;SDS011;391;51.052;6.954;2022-08-21T10:28:48;2.30;;;1.63;;
817;SDS011;391;51.052;6.954;2022-08-21T10:30:58;1.97;;;1.50;;
817;SDS011;391;51.052;6.954;2022-08-21T10:33:10;2.53;;;1.30;;
817;SDS011;391;51.052;6.954;2022-08-21T10:35:23;6.50;;;1.70;;
817;SDS011;391;51.052;6.954;2022-08-21T10:37:36;4.80;;;1.73;;
817;SDS011;391;51.052;6.954;2022-08-21T10:39:48;2.47;;;1.23;;
817;SDS011;391;51.052;6.954;2022-08-21T10:44:37;6.53;;;2.27;;
817;SDS011;391;51.052;6.954;2022-08-21T10:46:47;3.43;;;1.67;;
817;SDS011;391;51.052;6.954;2022-08-21T10:48:56;1.88;;;1.40;;
817;SDS011;391;51.052;6.954;2022-08-21T10:51:04;6.13;;;3.20;;
817;SDS011;391;51.052;6.954;2022-08-21T10:53:16;4.63;;;2.87;;
817;SDS011;391;51.052;6.954;2022-08-21T10:55:31;2.47;;;1.20;;
817;SDS011;391;51.052;6.954;2022-08-21T10:57:40;3.80;;;2.00;;
817;SDS011;391;51.052;6.954;2022-08-21T10:59:48;4.73;;;1.60;;
817;SDS011;391;51.052;6.954;2022-08-21T11:01:59;4.70;;;1.20;;
817;SDS011;391;51.052;6.954;2022-08-21T11:04:11;1.97;;;1.37;;
817;SDS011;391;51.052;6.954;2022-08-21T11:06:20;5.80;;;1.90;;
817;SDS011;391;51.052;6.954;2022-08-21T11:08:26;2.80;;;1.77;;
817;SDS011;391;51.052;6.954;2022-08-21T11:10:37;2.73;;;2.03;;
817;SDS011;391;51.052;6.954;2022-08-21T11:13:04;4.27;;;1.50;;
817;SDS011;391;51.052;6.954;2022-08-21T11:15:18;3.00;;;1.80;;
817;SDS011;391;51.052;6.954;2022-08-21T11:17:32;2.57;;;1.70;;
817;SDS011;391;51.052;6.954;2022-08-21T11:19:41;2.80;;;1.43;;
817;SDS011;391;51.052;6.954;2022-08-21T11:21:51;2.00;;;1.20;;
817;SDS011;391;51.052;6.954;2022-08-21T11:24:03;3.47;;;1.80;;
817;SDS011;391;51.052;6.954;2022-08-21T11:26:29;3.97;;;1.80;;
817;SDS011;391;51.052;6.954;2022-08-21T11:28:41;1.60;;;1.30;;
817;SDS011;391;51.052;6.954;2022-08-21T11:30:52;3.60;;;1.67;;
817;SDS011;391;51.052;6.954;2022-08-21T11:33:11;3.97;;;3.57;;
817;SDS011;391;51.052;6.954;2022-08-21T11:35:30;2.50;;;1.50;;
817;SDS011;391;51.052;6.954;2022-08-21T11:37:45;6.50;;;3.03;;
817;SDS011;391;51.052;6.954;2022-08-21T11:39:59;2.13;;;1.40;;
817;SDS011;391;51.052;6.954;2022-08-21T11:42:11;1.43;;;1.00;;
817;SDS011;391;51.052;6.954;2022-08-21T11:44:27;2.23;;;1.40;;
817;SDS011;391;51.052;6.954;2022-08-21T11:46:42;3.10;;;2.00;;
817;SDS011;391;51.052;6.954;2022-08-21T11:48:53;5.43;;;1.50;;
817;SDS011;391;51.052;6.954;2022-08-21T11:51:09;2.63;;;1.10;;
817;SDS011;391;51.052;6.954;2022-08-21T11:53:15;5.07;;;1.47;;
817;SDS011;391;51.052;6.954;2022-08-21T11:55:23;2.07;;;1.20;;
817;SDS011;391;51.052;6.954;2022-08-21T11:57:31;2.60;;;1.13;;
817;SDS011;391;51.052;6.954;2022-08-21T11:59:43;1.80;;;1.37;;
817;SDS011;391;51.052;6.954;2022-08-21T12:01:51;4.50;;;1.60;;
817;SDS011;391;51.052;6.954;2022-08-21T12:03:57;2.30;;;1.43;;
817;SDS011;391;51.052;6.954;2022-08-21T12:06:05;2.90;;;1.30;;
817;SDS011;391;51.052;6.954;2022-08-21T12:08:11;2.67;;;1.60;;
817;SDS011;391;51.052;6.954;2022-08-21T12:10:18;2.03;;;1.10;;
817;SDS011;391;51.052;6.954;2022-08-21T12:12:23;2.47;;;1.20;;
817;SDS011;391;51.052;6.954;2022-08-21T12:14:35;1.60;;;1.30;;
817;SDS011;391;51.052;6.954;2022-08-21T12:16:42;4.40;;;1.97;;
817;SDS011;391;51.052;6.954;2022-08-21T12:18:47;2.40;;;1.40;;
817;SDS011;391;51.052;6.954;2022-08-21T12:20:57;2.93;;;1.20;;
817;SDS011;391;51.052;6.954;2022-08-21T12:23:04;2.93;;;1.27;;
817;SDS011;391;51.052;6.954;2022-08-21T12:25:18;3.53;;;1.60;;
817;SDS011;391;51.052;6.954;2022-08-21T12:27:27;3.23;;;1.90;;
817;SDS011;391;51.052;6.954;2022-08-21T12:29:33;2.20;;;1.53;;
817;SDS011;391;51.052;6.954;2022-08-21T12:31:52;3.50;;;1.47;;
817;SDS011;391;51.052;6.954;2022-08-21T12:33:58;4.13;;;1.50;;
817;SDS011;391;51.052;6.954;2022-08-21T12:36:05;2.37;;;1.50;;
817;SDS011;391;51.052;6.954;2022-08-21T12:38:14;2.33;;;1.43;;
817;SDS011;391;51.052;6.954;2022-08-21T12:40:22;4.97;;;1.77;;
817;SDS011;391;51.052;6.954;2022-08-21T12:42:29;4.37;;;2.30;;
817;SDS011;391;51.052;6.954;2022-08-21T12:44:39;4.17;;;1.20;;
817;SDS011;391;51.052;6.954;2022-08-21T12:46:48;1.60;;;1.03;;
817;SDS011;391;51.052;6.954;2022-08-21T12:48:59;3.87;;;1.57;;
817;SDS011;391;51.052;6.954;2022-08-21T12:51:10;4.70;;;1.70;;
817;SDS011;391;51.052;6.954;2022-08-21T12:53:19;3.17;;;1.60;;
817;SDS011;391;51.052;6.954;2022-08-21T12:55:31;4.07;;;1.60;;
817;SDS011;391;51.052;6.954;2022-08-21T12:57:39;1.30;;;1.20;;
817;SDS011;391;51.052;6.954;2022-08-21T12:59:44;3.97;;;1.50;;
817;SDS011;391;51.052;6.954;2022-08-21T13:01:47;1.83;;;1.30;;
817;SDS011;391;51.052;6.954;2022-08-21T13:03:56;2.47;;;1.50;;
817;SDS011;391;51.052;6.954;2022-08-21T13:06:06;3.10;;;2.07;;
817;SDS011;391;51.052;6.954;2022-08-21T13:08:15;2.50;;;2.10;;
817;SDS011;391;51.052;6.954;2022-08-21T13:10:22;4.73;;;2.10;;
817;SDS011;391;51.052;6.954;2022-08-21T13:12:27;2.97;;;2.23;;
817;SDS011;391;51.052;6.954;2022-08-21T13:14:35;4.13;;;1.60;;
817;SDS011;391;51.052;6.954;2022-08-21T13:16:47;2.13;;;1.20;;
817;SDS011;391;51.052;6.954;2022-08-21T13:18:56;1.33;;;1.23;;
817;SDS011;391;51.052;6.954;2022-08-21T13:21:02;3.13;;;1.40;;
817;SDS011;391;51.052;6.954;2022-08-21T13:23:16;2.00;;;1.30;;
817;SDS011;391;51.052;6.954;2022-08-21T13:25:25;2.10;;;1.20;;
817;SDS011;391;51.052;6.954;2022-08-21T13:27:30;1.53;;;1.40;;
817;SDS011;391;51.052;6.954;2022-08-21T13:29:34;3.90;;;1.87;;
817;SDS011;391;51.052;6.954;2022-08-21T13:31:39;3.50;;;1.37;;